Disclaimer

Please do not use the information listed here in-flight or in-navigation, as they are not provided to us by the airports but are provided by volunteers, so they might be outdated.

Search


Regions


Airport information page

Radio informations:
FLORIANOPOLIS TW - 118.7 MHz
FLORIANOPOLIS OP - 122.5 MHz
Ground (GND) - 121.7 MHz
Automatic Terminal Information Service (ATIS) - 127.45 MHz
FLORIANOPOLIS AP - 119.65 MHz

Airport informations:
Latitude: 27° 40' 13.76" S
Longitude: 048° 32' 49.85" W
Elevation: 20 feet - 6 meters
Operating hours: Remarks
Operating agency: Military-civil joint use airport
Timezone: UTC-3(-2DT)
Fuel: Jet A1, without icing nhibitor.

100/130 octane gasoline, leaded, MIL-L-5572F (GREEN)

Runway information:
03/21 - 4921 x 148 feet< - >1500 x 45 meters
14/32 - 7546 x 148 feet< - >2300 x 45 meters

Recent METARs:
SBFL 210600Z 32002KT 9999 FEW040 19/16 Q1019
SBFL 210700Z 29005KT 9999 FEW040 19/16 Q1019
SBFL 210700Z 29005KT 9999 FEW040 19/16 Q1019

Airport on the map: